Time;durP1;ratioP1;P1;durP2;ratioP2;P2;SDS_P1;SDS_P2;PMS_P1;PMS_P2;Temp;Humidity;BMP_temperature;BMP_pressure;BME280_temperature;BME280_humidity;BME280_pressure;Samples;Min_cycle;Max_cycle;Signal;HPM_P1;HPM_P2
2022/03/18 00:00:29;;;;;;;37.53;4.60;;;;;;;;;;4912682;29;20136;-69
2022/03/18 00:02:56;;;;;;;44.33;5.35;;;;;;;;;;4911339;29;20091;-69
2022/03/18 00:05:24;;;;;;;24.10;4.47;;;;;;;;;;4910737;29;20048;-68
2022/03/18 00:07:52;;;;;;;34.47;4.78;;;;;;;;;;4915325;29;20159;-69
2022/03/18 00:10:18;;;;;;;;;;;;;;;;;;4916917;29;20052;-68
2022/03/18 00:12:45;;;;;;;34.05;4.75;;;;;;;;;;4910344;29;20053;-69
2022/03/18 00:15:13;;;;;;;35.92;5.82;;;;;;;;;;4910780;29;20055;-68
2022/03/18 00:17:40;;;;;;;45.55;4.97;;;;;;;;;;4915437;29;20143;-69
2022/03/18 00:20:07;;;;;;;26.83;4.00;;;;;;;;;;4910050;29;20075;-69
2022/03/18 00:22:34;;;;;;;46.13;6.03;;;;;;;;;;4909430;29;20084;-69
2022/03/18 00:25:01;;;;;;;46.08;6.28;;;;;;;;;;4908135;29;20106;-69
2022/03/18 00:27:27;;;;;;;55.47;6.35;;;;;;;;;;4910804;29;20146;-68
2022/03/18 00:29:54;;;;;;;33.23;4.73;;;;;;;;;;4917759;29;20536;-68
2022/03/18 00:32:21;;;;;;;38.30;6.03;;;;;;;;;;4910059;29;20650;-68
2022/03/18 00:34:48;;;;;;;49.15;5.65;;;;;;;;;;4911379;29;20055;-68
2022/03/18 00:37:14;;;;;;;52.50;4.60;;;;;;;;;;4911358;29;20686;-69
2022/03/18 00:39:41;;;;;;;47.15;6.18;;;;;;;;;;4907987;29;20100;-69
2022/03/18 00:42:08;;;;;;;47.25;5.93;;;;;;;;;;4910464;29;20143;-69
2022/03/18 00:44:37;;;;;;;56.72;6.03;;;;;;;;;;4909351;29;20466;-69
2022/03/18 00:51:58;;;;;;;63.63;5.80;;;;;;;;;;4909968;29;20744;-68
2022/03/18 00:52:35;;;;;;;49.95;6.72;;;;;;;;;;4909341;29;20142;-69
2022/03/18 00:55:02;;;;;;;57.30;5.65;;;;;;;;;;4908799;29;20172;-69
2022/03/18 00:57:29;;;;;;;56.57;5.50;;;;;;;;;;4911219;29;20058;-69
2022/03/18 00:59:55;;;;;;;50.13;5.78;;;;;;;;;;4917012;29;20086;-69
2022/03/18 01:02:24;;;;;;;44.00;5.93;;;;;;;;;;4913105;29;20147;-68
2022/03/18 01:04:51;;;;;;;50.20;6.72;;;;;;;;;;4908082;29;20512;-69
2022/03/18 01:07:17;;;;;;;76.18;7.30;;;;;;;;;;4908685;29;20071;-69
2022/03/18 01:09:44;;;;;;;52.10;6.37;;;;;;;;;;4908624;29;20062;-68
2022/03/18 01:12:10;;;;;;;52.08;5.68;;;;;;;;;;4907226;29;20151;-69
2022/03/18 01:14:37;;;;;;;47.47;6.22;;;;;;;;;;4909255;29;20072;-68
2022/03/18 01:17:04;;;;;;;47.05;5.95;;;;;;;;;;4907468;29;20138;-68
2022/03/18 01:19:31;;;;;;;63.75;5.95;;;;;;;;;;4911882;29;20139;-69
2022/03/18 01:21:57;;;;;;;56.63;6.82;;;;;;;;;;4912797;29;20155;-69
2022/03/18 01:24:24;;;;;;;52.42;5.80;;;;;;;;;;4915533;29;20134;-68
2022/03/18 01:26:51;;;;;;;57.92;8.02;;;;;;;;;;4919241;29;20139;-69
2022/03/18 01:29:17;;;;;;;58.42;7.20;;;;;;;;;;4912874;29;20202;-68
2022/03/18 01:31:43;;;;;;;65.00;7.25;;;;;;;;;;4908893;29;20155;-70
2022/03/18 01:34:10;;;;;;;61.85;6.85;;;;;;;;;;4910529;29;20527;-69
2022/03/18 01:36:36;;;;;;;67.35;6.57;;;;;;;;;;4908081;29;20058;-69
2022/03/18 01:39:05;;;;;;;51.92;5.70;;;;;;;;;;4908867;29;20043;-69
2022/03/18 01:41:33;;;;;;;65.43;9.48;;;;;;;;;;4909455;29;20135;-69
2022/03/18 01:43:59;;;;;;;53.35;6.55;;;;;;;;;;4907545;29;20138;-69
2022/03/18 01:46:26;;;;;;;54.73;6.30;;;;;;;;;;4908089;29;20140;-69
2022/03/18 01:48:53;;;;;;;63.03;8.27;;;;;;;;;;4906316;29;20100;-68
2022/03/18 01:51:19;;;;;;;65.03;7.82;;;;;;;;;;4908103;29;20062;-68
2022/03/18 01:54:44;;;;;;;72.07;7.63;;;;;;;;;;4909420;29;20138;-68
2022/03/18 01:56:34;;;;;;;71.15;8.38;;;;;;;;;;4910442;29;20404;-68
2022/03/18 01:59:01;;;;;;;;;;;;;;;;;;4897294;29;20067;-69
2022/03/18 02:01:28;;;;;;;70.97;6.47;;;;;;;;;;4921862;29;20434;-69
2022/03/18 02:03:55;;;;;;;69.47;7.45;;;;;;;;;;4918186;29;20040;-69
2022/03/18 02:06:23;;;;;;;72.80;6.78;;;;;;;;;;4921924;29;20079;-69
2022/03/18 02:08:49;;;;;;;86.50;9.90;;;;;;;;;;4919099;29;20103;-69
2022/03/18 02:11:16;;;;;;;73.88;8.65;;;;;;;;;;4921635;29;20115;-69
2022/03/18 02:13:42;;;;;;;89.50;9.35;;;;;;;;;;4919878;29;20083;-69
2022/03/18 02:16:09;;;;;;;81.90;9.73;;;;;;;;;;4921251;28;20832;-68
2022/03/18 02:18:36;;;;;;;70.25;8.43;;;;;;;;;;4911378;29;20072;-69
2022/03/18 02:21:02;;;;;;;76.83;9.07;;;;;;;;;;4911801;29;20726;-69
2022/03/18 02:23:29;;;;;;;73.78;8.27;;;;;;;;;;4908881;29;20142;-69
2022/03/18 02:25:56;;;;;;;68.38;8.68;;;;;;;;;;4899745;29;20150;-69
2022/03/18 02:28:23;;;;;;;74.30;8.93;;;;;;;;;;4915491;29;20138;-68
2022/03/18 02:30:49;;;;;;;89.25;10.70;;;;;;;;;;4915039;29;20402;-69
2022/03/18 02:33:17;;;;;;;86.15;9.02;;;;;;;;;;4912504;29;20078;-69
2022/03/18 02:35:44;;;;;;;81.47;9.57;;;;;;;;;;4911387;29;20155;-68
2022/03/18 02:38:11;;;;;;;68.80;9.45;;;;;;;;;;4911046;29;20099;-69
2022/03/18 02:40:37;;;;;;;87.53;10.27;;;;;;;;;;4911308;29;22390;-68
2022/03/18 02:43:03;;;;;;;84.13;10.40;;;;;;;;;;4912028;29;20058;-69
2022/03/18 02:45:31;;;;;;;97.40;10.68;;;;;;;;;;4911276;29;20048;-69
2022/03/18 02:47:58;;;;;;;83.05;11.32;;;;;;;;;;4924315;29;20055;-69
2022/03/18 02:50:27;;;;;;;89.55;12.52;;;;;;;;;;4922626;29;20135;-68
2022/03/18 02:52:54;;;;;;;72.60;9.18;;;;;;;;;;4922077;29;20490;-68
2022/03/18 02:55:21;;;;;;;87.60;9.50;;;;;;;;;;4925513;29;20381;-69
2022/03/18 02:57:54;;;;;;;88.57;9.95;;;;;;;;;;4924389;29;20076;-68
2022/03/18 03:00:25;;;;;;;86.82;9.55;;;;;;;;;;4921174;29;20129;-68
2022/03/18 03:02:51;;;;;;;80.40;10.25;;;;;;;;;;4922803;29;20051;-69
2022/03/18 03:08:10;;;;;;;75.20;10.07;;;;;;;;;;4925862;29;20139;-69
2022/03/18 03:10:44;;;;;;;83.45;9.40;;;;;;;;;;4921395;29;20087;-68
2022/03/18 03:13:10;;;;;;;74.00;9.10;;;;;;;;;;4923672;29;20075;-69
2022/03/18 03:15:38;;;;;;;44.35;6.80;;;;;;;;;;4922726;29;20056;-69
2022/03/18 03:18:12;;;;;;;81.53;9.82;;;;;;;;;;4916757;28;20604;-69
2022/03/18 03:20:38;;;;;;;60.97;9.07;;;;;;;;;;4921201;29;20517;-69
2022/03/18 03:23:05;;;;;;;76.87;9.23;;;;;;;;;;4924060;29;20138;-70
2022/03/18 03:25:31;;;;;;;94.40;10.77;;;;;;;;;;4919545;29;20703;-69
2022/03/18 03:27:58;;;;;;;68.00;9.70;;;;;;;;;;4920601;29;20076;-68
2022/03/18 03:30:25;;;;;;;74.35;10.68;;;;;;;;;;4920297;29;20150;-69
2022/03/18 03:32:53;;;;;;;59.15;8.43;;;;;;;;;;4926333;29;20047;-68
2022/03/18 03:35:20;;;;;;;72.22;9.93;;;;;;;;;;4913648;29;20167;-69
2022/03/18 03:37:46;;;;;;;78.53;9.38;;;;;;;;;;4922915;29;20508;-67
2022/03/18 03:40:13;;;;;;;71.47;10.80;;;;;;;;;;4925992;29;20048;-69
2022/03/18 03:42:41;;;;;;;77.10;10.55;;;;;;;;;;4922761;29;20511;-68
2022/03/18 03:45:08;;;;;;;74.85;11.60;;;;;;;;;;4922056;29;20051;-69
2022/03/18 03:47:41;;;;;;;67.65;10.73;;;;;;;;;;4919978;29;20142;-69
2022/03/18 03:50:08;;;;;;;67.22;9.77;;;;;;;;;;4909913;29;20599;-69
2022/03/18 03:52:35;;;;;;;68.97;10.07;;;;;;;;;;4912241;29;20135;-69
2022/03/18 03:55:03;;;;;;;64.60;11.02;;;;;;;;;;4911494;29;20143;-68
2022/03/18 03:57:29;;;;;;;77.35;11.70;;;;;;;;;;4920995;29;20731;-68
2022/03/18 03:59:56;;;;;;;74.22;11.25;;;;;;;;;;4920494;29;20493;-69
2022/03/18 04:02:27;;;;;;;81.00;11.35;;;;;;;;;;4912387;29;20047;-68
2022/03/18 04:04:53;;;;;;;68.53;10.88;;;;;;;;;;4909525;29;20056;-69
2022/03/18 04:07:20;;;;;;;78.10;11.63;;;;;;;;;;4916382;29;20100;-69
2022/03/18 04:09:49;;;;;;;77.15;12.10;;;;;;;;;;4919892;29;20147;-68
2022/03/18 04:12:15;;;;;;;65.93;10.57;;;;;;;;;;4910379;29;20615;-68
2022/03/18 04:14:42;;;;;;;100.73;13.93;;;;;;;;;;4913855;29;20063;-68
2022/03/18 04:17:08;;;;;;;78.32;12.55;;;;;;;;;;4899203;29;20868;-68
2022/03/18 04:19:35;;;;;;;65.40;10.98;;;;;;;;;;4889683;29;20167;-69
2022/03/18 04:22:01;;;;;;;79.63;11.73;;;;;;;;;;4890736;29;20143;-68
2022/03/18 04:24:28;;;;;;;72.68;11.10;;;;;;;;;;4905600;29;20565;-69
2022/03/18 04:26:54;;;;;;;66.00;11.15;;;;;;;;;;4889495;29;20134;-69
2022/03/18 04:29:24;;;;;;;75.90;11.35;;;;;;;;;;4898024;29;20143;-69
2022/03/18 04:31:52;;;;;;;80.18;13.20;;;;;;;;;;4890207;29;20696;-69
2022/03/18 04:34:18;;;;;;;79.32;12.05;;;;;;;;;;4891423;29;20052;-68
2022/03/18 04:36:45;;;;;;;73.88;11.77;;;;;;;;;;4890888;29;20135;-69
2022/03/18 04:39:15;;;;;;;77.00;12.07;;;;;;;;;;4900584;29;20127;-69
2022/03/18 04:41:41;;;;;;;75.60;11.80;;;;;;;;;;4881683;29;20056;-69
2022/03/18 04:44:07;;;;;;;78.97;13.18;;;;;;;;;;4899586;29;20135;-69
2022/03/18 04:46:34;;;;;;;75.22;11.60;;;;;;;;;;4890671;29;20084;-69
2022/03/18 04:49:00;;;;;;;65.45;11.25;;;;;;;;;;4889323;29;20054;-69
2022/03/18 04:51:27;;;;;;;72.65;11.27;;;;;;;;;;4878039;29;20083;-69
2022/03/18 04:54:00;;;;;;;83.13;12.13;;;;;;;;;;4890186;29;20131;-69
2022/03/18 04:59:12;;;;;;;66.13;11.23;;;;;;;;;;4897404;29;20048;-69
2022/03/18 05:01:39;;;;;;;69.70;13.57;;;;;;;;;;4900132;29;20531;-69
2022/03/18 05:04:06;;;;;;;66.40;12.73;;;;;;;;;;4903460;29;20048;-68
2022/03/18 05:06:33;;;;;;;68.50;10.98;;;;;;;;;;4904108;29;20145;-69
2022/03/18 05:09:00;;;;;;;75.47;11.77;;;;;;;;;;4903771;29;20108;-68
2022/03/18 05:11:26;;;;;;;92.38;12.15;;;;;;;;;;4902804;29;20115;-68
2022/03/18 05:13:53;;;;;;;78.32;12.70;;;;;;;;;;4884550;29;20100;-69
2022/03/18 05:16:20;;;;;;;74.57;12.38;;;;;;;;;;4908713;29;20170;-68
2022/03/18 05:18:48;;;;;;;69.93;11.98;;;;;;;;;;4926338;29;20127;-69
2022/03/18 05:21:15;;;;;;;62.95;12.23;;;;;;;;;;4921019;29;20087;-69
2022/03/18 05:23:42;;;;;;;76.35;12.88;;;;;;;;;;4920291;29;20503;-68
2022/03/18 05:26:10;;;;;;;74.32;13.30;;;;;;;;;;4918741;29;20130;-69
2022/03/18 05:28:37;;;;;;;54.30;8.73;;;;;;;;;;4916893;29;20135;-69
2022/03/18 05:31:04;;;;;;;55.33;11.60;;;;;;;;;;4921063;29;20800;-69
2022/03/18 05:33:30;;;;;;;75.15;12.25;;;;;;;;;;4918780;29;20315;-69
2022/03/18 05:36:03;;;;;;;64.85;11.60;;;;;;;;;;4920625;29;20091;-69
2022/03/18 05:38:30;;;;;;;83.95;12.40;;;;;;;;;;4924452;29;20106;-68
2022/03/18 05:40:56;;;;;;;93.73;13.60;;;;;;;;;;4917895;29;20095;-69
2022/03/18 05:43:24;;;;;;;83.30;14.32;;;;;;;;;;4918007;29;20138;-68
2022/03/18 05:45:51;;;;;;;87.38;12.95;;;;;;;;;;4919156;29;20087;-69
2022/03/18 05:48:18;;;;;;;81.03;13.90;;;;;;;;;;4922759;29;20083;-69
2022/03/18 05:50:51;;;;;;;88.75;13.18;;;;;;;;;;4920017;29;20386;-69
2022/03/18 05:53:18;;;;;;;62.55;11.50;;;;;;;;;;4920393;29;20150;-68
2022/03/18 05:58:52;;;;;;;69.45;12.77;;;;;;;;;;4904140;29;20054;-69
2022/03/18 06:01:19;;;;;;;83.47;13.18;;;;;;;;;;4921308;29;20131;-69
2022/03/18 06:03:49;;;;;;;85.93;13.70;;;;;;;;;;4923185;29;20442;-69
2022/03/18 06:06:16;;;;;;;91.70;14.43;;;;;;;;;;4925658;29;20074;-69
2022/03/18 06:14:15;;;;;;;83.18;15.35;;;;;;;;;;4908551;29;20052;-68
2022/03/18 06:16:42;;;;;;;87.10;12.52;;;;;;;;;;4921655;29;20583;-69
2022/03/18 06:19:10;;;;;;;74.28;13.02;;;;;;;;;;4925017;29;20059;-69
2022/03/18 06:21:36;;;;;;;80.70;12.88;;;;;;;;;;4925744;29;20909;-69
2022/03/18 06:24:03;;;;;;;73.83;13.73;;;;;;;;;;4920335;29;20095;-69
2022/03/18 06:26:33;;;;;;;78.70;13.60;;;;;;;;;;4923190;29;20056;-68
2022/03/18 06:28:59;;;;;;;76.70;11.85;;;;;;;;;;4925968;29;20534;-69
2022/03/18 06:31:26;;;;;;;61.67;10.03;;;;;;;;;;4923896;29;20139;-69
2022/03/18 06:33:53;;;;;;;83.45;12.05;;;;;;;;;;4919708;29;20108;-69
2022/03/18 06:36:19;;;;;;;74.43;13.05;;;;;;;;;;4923584;29;20132;-69
2022/03/18 06:38:46;;;;;;;77.45;11.88;;;;;;;;;;4922384;29;20194;-69
2022/03/18 06:41:14;;;;;;;85.97;12.50;;;;;;;;;;4923204;29;20626;-69
2022/03/18 06:43:42;;;;;;;62.80;11.55;;;;;;;;;;4924600;29;20095;-69
2022/03/18 06:46:11;;;;;;;71.82;11.18;;;;;;;;;;4922190;29;20095;-69
2022/03/18 06:48:37;;;;;;;69.63;10.27;;;;;;;;;;4919003;29;20054;-69
2022/03/18 06:51:03;;;;;;;65.03;10.60;;;;;;;;;;4928193;29;20698;-69
2022/03/18 06:53:32;;;;;;;66.75;9.10;;;;;;;;;;4923017;29;20594;-69
2022/03/18 06:56:00;;;;;;;67.75;10.82;;;;;;;;;;4921969;29;20545;-69
2022/03/18 06:58:29;;;;;;;63.13;10.00;;;;;;;;;;4923067;29;20135;-69
2022/03/18 07:00:57;;;;;;;64.47;9.25;;;;;;;;;;4922037;29;20496;-69
2022/03/18 07:03:23;;;;;;;43.65;10.05;;;;;;;;;;4925463;29;20056;-69
2022/03/18 07:05:50;;;;;;;56.63;9.03;;;;;;;;;;4922296;29;20063;-69
2022/03/18 07:08:17;;;;;;;53.17;9.02;;;;;;;;;;4922208;29;20783;-69
2022/03/18 07:10:44;;;;;;;56.63;8.68;;;;;;;;;;4919738;29;20135;-69
2022/03/18 07:13:10;;;;;;;65.60;9.25;;;;;;;;;;4922464;29;20079;-69
2022/03/18 07:15:37;;;;;;;47.72;8.30;;;;;;;;;;4919167;29;20131;-69
2022/03/18 07:18:04;;;;;;;47.53;7.82;;;;;;;;;;4915203;29;20084;-68
2022/03/18 07:20:33;;;;;;;64.43;7.85;;;;;;;;;;4916283;29;20143;-69
2022/03/18 07:23:05;;;;;;;54.10;7.57;;;;;;;;;;4915382;29;20139;-69
2022/03/18 07:25:33;;;;;;;45.78;6.90;;;;;;;;;;4916883;29;20051;-69
2022/03/18 07:28:00;;;;;;;;;;;;;;;;;;4917094;29;20284;-69
2022/03/18 07:30:26;;;;;;;52.90;8.20;;;;;;;;;;4916585;29;20026;-69
2022/03/18 07:32:53;;;;;;;52.05;8.70;;;;;;;;;;4915829;29;20111;-69
2022/03/18 07:35:20;;;;;;;54.08;7.63;;;;;;;;;;4914798;29;20087;-69
2022/03/18 07:37:48;;;;;;;57.50;7.53;;;;;;;;;;4916431;29;20052;-69
2022/03/18 07:40:18;;;;;;;53.60;8.43;;;;;;;;;;4916532;29;20534;-69
2022/03/18 07:42:48;;;;;;;53.35;7.10;;;;;;;;;;4928735;29;20094;-69
2022/03/18 07:45:19;;;;;;;52.70;6.85;;;;;;;;;;4920375;29;20091;-69
2022/03/18 07:47:46;;;;;;;41.20;6.18;;;;;;;;;;4915833;29;20139;-69
2022/03/18 07:50:12;;;;;;;48.78;8.18;;;;;;;;;;4921250;29;20075;-69
2022/03/18 07:52:39;;;;;;;55.03;7.63;;;;;;;;;;4922313;29;20474;-69
2022/03/18 07:55:05;;;;;;;47.75;6.78;;;;;;;;;;4923048;29;20087;-69
2022/03/18 07:57:32;;;;;;;48.80;6.75;;;;;;;;;;4922712;29;20598;-69
2022/03/18 07:59:58;;;;;;;50.83;6.22;;;;;;;;;;4925420;29;20138;-69
2022/03/18 08:02:25;;;;;;;44.33;5.57;;;;;;;;;;4920737;29;20090;-69
2022/03/18 08:04:51;;;;;;;44.95;6.22;;;;;;;;;;4917267;29;20091;-70
2022/03/18 08:07:18;;;;;;;39.85;6.63;;;;;;;;;;4923609;29;20056;-69
2022/03/18 08:09:46;;;;;;;43.70;6.75;;;;;;;;;;4920567;29;20127;-68
2022/03/18 08:12:13;;;;;;;39.70;6.03;;;;;;;;;;4923954;29;20134;-68
2022/03/18 08:14:40;;;;;;;56.95;7.65;;;;;;;;;;4923766;29;20105;-68
2022/03/18 08:17:12;;;;;;;46.78;7.57;;;;;;;;;;4914020;28;20465;-69
2022/03/18 08:19:39;;;;;;;58.97;7.73;;;;;;;;;;4901667;29;20059;-69
2022/03/18 08:22:07;;;;;;;39.67;6.28;;;;;;;;;;4901284;29;20056;-69
2022/03/18 08:24:33;;;;;;;;;;;;;;;;;;4902775;29;20088;-69
2022/03/18 08:26:59;;;;;;;47.20;7.00;;;;;;;;;;4904463;29;20583;-69
2022/03/18 08:29:26;;;;;;;44.00;7.03;;;;;;;;;;4902710;29;20087;-69
2022/03/18 08:31:59;;;;;;;36.80;5.47;;;;;;;;;;4902409;29;20079;-68
2022/03/18 08:34:26;;;;;;;40.00;5.78;;;;;;;;;;4901367;29;20476;-68
2022/03/18 08:36:52;;;;;;;38.15;6.32;;;;;;;;;;4898910;29;20108;-68
2022/03/18 08:39:25;;;;;;;23.40;4.35;;;;;;;;;;4903511;29;20132;-68
2022/03/18 08:41:52;;;;;;;35.53;6.32;;;;;;;;;;4903513;29;20127;-68
2022/03/18 08:44:19;;;;;;;26.87;4.83;;;;;;;;;;4903934;29;20135;-69
2022/03/18 08:46:46;;;;;;;27.92;5.13;;;;;;;;;;4900794;29;20116;-68
2022/03/18 08:49:13;;;;;;;30.70;4.72;;;;;;;;;;4897167;29;20143;-69
2022/03/18 08:51:40;;;;;;;30.87;4.40;;;;;;;;;;4896107;29;20144;-68
2022/03/18 08:54:07;;;;;;;24.20;3.67;;;;;;;;;;4896075;29;20364;-68
2022/03/18 08:56:34;;;;;;;20.48;3.55;;;;;;;;;;4896001;29;20139;-68
2022/03/18 08:59:03;;;;;;;28.02;4.22;;;;;;;;;;4896044;29;20143;-68
2022/03/18 09:01:30;;;;;;;26.88;4.88;;;;;;;;;;4895983;29;21321;-69
2022/03/18 09:03:57;;;;;;;19.35;4.57;;;;;;;;;;4898411;29;20544;-68
2022/03/18 09:06:23;;;;;;;17.37;3.63;;;;;;;;;;4896266;29;20076;-68
2022/03/18 09:08:50;;;;;;;21.75;3.67;;;;;;;;;;4895772;29;20715;-69
2022/03/18 09:11:17;;;;;;;20.38;3.72;;;;;;;;;;4895847;29;20433;-68
2022/03/18 09:13:44;;;;;;;22.85;4.07;;;;;;;;;;4894049;29;20146;-68
2022/03/18 09:16:12;;;;;;;14.90;3.08;;;;;;;;;;4894381;29;20075;-68
2022/03/18 09:18:58;;;;;;;11.07;2.75;;;;;;;;;;4893455;29;20523;-68
2022/03/18 09:21:24;;;;;;;18.58;3.40;;;;;;;;;;4893916;29;20527;-68
2022/03/18 09:23:51;;;;;;;21.73;3.08;;;;;;;;;;4892647;29;20479;-67
2022/03/18 09:26:17;;;;;;;15.55;2.90;;;;;;;;;;4894218;29;20343;-68
2022/03/18 09:28:46;;;;;;;16.33;3.47;;;;;;;;;;4894225;29;20054;-67
2022/03/18 09:31:13;;;;;;;13.73;2.63;;;;;;;;;;4894691;29;20139;-68
2022/03/18 09:33:43;;;;;;;;;;;;;;;;;;4904671;29;20152;-68
2022/03/18 09:36:10;;;;;;;20.13;3.15;;;;;;;;;;4905721;29;19983;-68
2022/03/18 09:38:37;;;;;;;19.23;3.20;;;;;;;;;;4904417;29;20156;-68
2022/03/18 09:41:07;;;;;;;11.35;2.92;;;;;;;;;;4906320;29;20128;-67
2022/03/18 09:43:35;;;;;;;18.42;2.83;;;;;;;;;;4902197;29;20398;-68
2022/03/18 09:46:02;;;;;;;;;;;;;;;;;;4905589;29;20048;-67
2022/03/18 09:48:52;;;;;;;25.63;3.28;;;;;;;;;;4905830;29;19927;-67
2022/03/18 09:51:18;;;;;;;17.33;3.15;;;;;;;;;;4903450;29;20254;-67
2022/03/18 09:54:12;;;;;;;10.35;3.00;;;;;;;;;;4897746;29;20058;-67
2022/03/18 09:56:43;;;;;;;12.07;2.55;;;;;;;;;;4897921;29;20135;-67
2022/03/18 09:59:11;;;;;;;13.65;2.47;;;;;;;;;;4900229;29;20054;-67
2022/03/18 10:01:38;;;;;;;17.75;3.75;;;;;;;;;;4899161;29;20564;-67
2022/03/18 10:04:10;;;;;;;16.40;3.10;;;;;;;;;;4902536;29;20135;-67
2022/03/18 10:06:43;;;;;;;20.42;3.63;;;;;;;;;;4907297;29;20131;-68
2022/03/18 10:09:14;;;;;;;15.90;2.87;;;;;;;;;;4901846;29;20057;-67
2022/03/18 10:11:43;;;;;;;20.05;2.92;;;;;;;;;;4898722;29;20540;-67
2022/03/18 10:14:14;;;;;;;18.25;3.00;;;;;;;;;;4900779;29;20127;-68
2022/03/18 10:16:51;;;;;;;18.73;3.30;;;;;;;;;;4907963;29;22239;-67
2022/03/18 10:19:20;;;;;;;19.77;3.00;;;;;;;;;;4899668;29;20052;-67
2022/03/18 10:22:00;;;;;;;17.13;4.20;;;;;;;;;;4898577;29;20408;-68
2022/03/18 10:24:27;;;;;;;13.45;2.70;;;;;;;;;;4901439;29;20135;-67
2022/03/18 10:27:14;;;;;;;16.48;3.20;;;;;;;;;;4908764;29;20079;-68
2022/03/18 10:29:41;;;;;;;14.20;2.92;;;;;;;;;;4901317;29;20063;-67
2022/03/18 10:32:09;;;;;;;14.82;3.10;;;;;;;;;;4906066;29;20139;-68
2022/03/18 10:37:22;;;;;;;17.65;2.92;;;;;;;;;;4902962;29;20053;-67
2022/03/18 10:39:58;;;;;;;11.05;2.35;;;;;;;;;;4899522;29;20131;-67
2022/03/18 10:42:24;;;;;;;17.65;2.70;;;;;;;;;;4899867;29;20127;-67
2022/03/18 10:44:54;;;;;;;18.10;2.92;;;;;;;;;;4899876;29;20091;-67
2022/03/18 10:47:27;;;;;;;17.20;3.15;;;;;;;;;;4900611;29;20083;-68
2022/03/18 10:50:11;;;;;;;17.88;2.65;;;;;;;;;;4898826;29;20139;-68
2022/03/18 10:52:40;;;;;;;14.10;2.70;;;;;;;;;;4902117;29;20049;-67
2022/03/18 10:55:20;;;;;;;12.38;2.40;;;;;;;;;;4899391;29;20103;-68
2022/03/18 10:57:50;;;;;;;11.43;2.85;;;;;;;;;;4897696;29;20152;-68
2022/03/18 11:00:17;;;;;;;15.05;2.67;;;;;;;;;;4897498;29;20075;-68
2022/03/18 11:02:45;;;;;;;15.38;3.45;;;;;;;;;;4899457;29;20060;-67
2022/03/18 11:05:19;;;;;;;8.25;1.90;;;;;;;;;;4901464;29;20063;-67
2022/03/18 11:07:46;;;;;;;13.05;2.90;;;;;;;;;;4902900;29;20045;-67
2022/03/18 11:13:04;;;;;;;17.65;2.47;;;;;;;;;;4896027;29;20563;-68
2022/03/18 11:15:31;;;;;;;12.70;2.87;;;;;;;;;;4895499;29;20127;-68
2022/03/18 11:17:58;;;;;;;13.80;2.65;;;;;;;;;;4896634;29;20607;-68
2022/03/18 11:20:26;;;;;;;10.88;2.40;;;;;;;;;;4898494;29;20320;-68
2022/03/18 11:22:52;;;;;;;;;;;;;;;;;;4898767;29;20079;-68
2022/03/18 11:25:19;;;;;;;10.32;2.47;;;;;;;;;;4896439;29;19927;-67
2022/03/18 11:27:47;;;;;;;12.73;1.88;;;;;;;;;;4894729;29;20104;-68
2022/03/18 11:30:18;;;;;;;15.50;2.55;;;;;;;;;;4898630;29;20191;-67
2022/03/18 11:33:04;;;;;;;9.80;2.22;;;;;;;;;;4897120;29;20080;-68
2022/03/18 11:36:00;;;;;;;10.80;2.15;;;;;;;;;;4897114;29;20138;-68
2022/03/18 11:38:47;;;;;;;9.02;2.30;;;;;;;;;;4889702;29;20123;-68
2022/03/18 11:41:16;;;;;;;11.57;2.42;;;;;;;;;;4897735;29;20080;-68
2022/03/18 11:43:43;;;;;;;11.75;2.13;;;;;;;;;;4904061;29;20089;-68
2022/03/18 11:46:12;;;;;;;10.65;2.00;;;;;;;;;;4896544;29;20175;-68
2022/03/18 11:48:51;;;;;;;10.65;2.70;;;;;;;;;;4895358;29;20056;-65
2022/03/18 11:51:24;;;;;;;12.55;2.50;;;;;;;;;;4895489;29;20064;-66
2022/03/18 11:53:53;;;;;;;15.57;2.58;;;;;;;;;;4896544;29;20056;-66
2022/03/18 11:56:19;;;;;;;;;;;;;;;;;;4882748;29;20056;-67
2022/03/18 11:58:46;;;;;;;11.80;2.47;;;;;;;;;;4894422;29;21895;-66
2022/03/18 12:01:31;;;;;;;17.07;2.33;;;;;;;;;;4897451;29;20135;-67
2022/03/18 12:03:58;;;;;;;11.63;2.70;;;;;;;;;;4903874;29;20051;-66
2022/03/18 12:06:24;;;;;;;16.08;2.22;;;;;;;;;;4899427;29;20084;-66
2022/03/18 12:09:08;;;;;;;13.18;2.38;;;;;;;;;;4896068;29;20048;-67
2022/03/18 12:11:36;;;;;;;11.00;2.45;;;;;;;;;;4896850;29;20147;-66
2022/03/18 12:14:05;;;;;;;14.43;3.28;;;;;;;;;;4894975;29;20432;-66
2022/03/18 12:16:31;;;;;;;10.50;2.03;;;;;;;;;;4895781;29;20156;-66
2022/03/18 12:19:11;;;;;;;14.73;2.40;;;;;;;;;;4914216;29;20169;-67
2022/03/18 12:21:43;;;;;;;14.57;2.50;;;;;;;;;;4914509;29;20654;-66
2022/03/18 12:24:11;;;;;;;11.80;2.60;;;;;;;;;;4916196;29;20180;-66
2022/03/18 12:27:01;;;;;;;7.57;2.00;;;;;;;;;;4916962;29;20630;-66
2022/03/18 12:29:29;;;;;;;11.52;2.50;;;;;;;;;;4920659;29;20484;-66
2022/03/18 12:32:06;;;;;;;12.25;2.30;;;;;;;;;;4919981;29;20515;-67
2022/03/18 12:34:34;;;;;;;13.70;3.05;;;;;;;;;;4916386;29;20044;-66
2022/03/18 12:37:01;;;;;;;9.95;2.00;;;;;;;;;;4914808;29;20601;-66
2022/03/18 12:39:29;;;;;;;11.38;2.47;;;;;;;;;;4914571;29;20047;-67
2022/03/18 12:42:09;;;;;;;9.38;2.17;;;;;;;;;;4915632;29;20076;-66
2022/03/18 12:44:35;;;;;;;13.88;2.95;;;;;;;;;;4915610;29;20048;-66
2022/03/18 12:47:05;;;;;;;8.85;2.17;;;;;;;;;;4914354;29;20080;-66
2022/03/18 12:49:35;;;;;;;10.50;2.03;;;;;;;;;;4917683;29;20579;-67
2022/03/18 12:52:09;;;;;;;12.05;2.00;;;;;;;;;;4915948;29;20090;-66
2022/03/18 12:54:36;;;;;;;8.32;2.50;;;;;;;;;;4914515;29;20151;-66
2022/03/18 12:57:06;;;;;;;15.20;2.60;;;;;;;;;;4913252;29;20154;-66
2022/03/18 12:59:33;;;;;;;16.65;2.17;;;;;;;;;;4913997;29;20142;-67
2022/03/18 13:02:20;;;;;;;24.63;2.95;;;;;;;;;;4915544;29;20055;-66
2022/03/18 13:04:54;;;;;;;10.52;2.08;;;;;;;;;;4915633;29;20055;-67
2022/03/18 13:07:23;;;;;;;12.27;2.10;;;;;;;;;;4913456;29;20055;-66
2022/03/18 13:09:58;;;;;;;10.88;2.15;;;;;;;;;;4914153;29;20048;-67
2022/03/18 13:12:25;;;;;;;14.57;3.00;;;;;;;;;;4912695;29;20079;-66
2022/03/18 13:14:56;;;;;;;9.45;2.75;;;;;;;;;;4913957;29;20044;-66
2022/03/18 13:17:23;;;;;;;12.13;2.40;;;;;;;;;;4913668;29;20503;-66
2022/03/18 13:19:51;;;;;;;;;;;;;;;;;;4921378;29;20063;-66
2022/03/18 13:22:19;;;;;;;11.25;2.70;;;;;;;;;;4920788;29;19929;-66
2022/03/18 13:24:45;;;;;;;8.60;2.38;;;;;;;;;;4922644;29;20080;-67
2022/03/18 13:27:12;;;;;;;8.52;2.38;;;;;;;;;;4916383;29;20135;-67
2022/03/18 13:35:11;;;;;;;7.78;2.28;;;;;;;;;;4915983;29;20492;-66
2022/03/18 13:37:39;;;;;;;11.27;2.40;;;;;;;;;;4918347;29;20131;-67
2022/03/18 13:40:13;;;;;;;14.13;2.60;;;;;;;;;;4921740;29;20099;-67
2022/03/18 13:42:41;;;;;;;9.85;2.45;;;;;;;;;;4921694;29;20499;-67
2022/03/18 13:45:24;;;;;;;11.25;2.53;;;;;;;;;;4924514;29;20055;-66
2022/03/18 13:47:50;;;;;;;12.63;2.35;;;;;;;;;;4921246;29;20048;-66
2022/03/18 13:50:50;;;;;;;;;;;;;;;;;;4897508;29;20056;-67
2022/03/18 13:53:30;;;;;;;8.68;2.25;;;;;;;;;;4922450;29;20033;-67
2022/03/18 13:56:13;;;;;;;15.45;3.42;;;;;;;;;;4921477;29;20130;-67
2022/03/18 13:58:39;;;;;;;11.70;2.20;;;;;;;;;;4920477;29;20167;-66
2022/03/18 14:01:17;;;;;;;9.82;2.20;;;;;;;;;;4921296;29;20086;-66
2022/03/18 14:03:48;;;;;;;8.35;2.05;;;;;;;;;;4920875;29;20109;-66
2022/03/18 14:06:16;;;;;;;11.02;2.20;;;;;;;;;;4919192;29;20079;-66
2022/03/18 14:08:43;;;;;;;12.05;2.30;;;;;;;;;;4918681;29;20055;-66
2022/03/18 14:14:20;;;;;;;10.40;2.33;;;;;;;;;;4919351;29;20359;-66
2022/03/18 14:17:06;;;;;;;8.90;1.73;;;;;;;;;;4921229;29;20159;-67
2022/03/18 14:19:56;;;;;;;9.10;2.35;;;;;;;;;;4915699;29;20100;-66
2022/03/18 14:22:39;;;;;;;7.22;2.13;;;;;;;;;;4916216;29;20056;-66
2022/03/18 14:25:07;;;;;;;8.38;1.75;;;;;;;;;;4922674;29;20091;-66
2022/03/18 14:27:57;;;;;;;6.57;1.75;;;;;;;;;;4920047;29;20066;-66
2022/03/18 14:30:26;;;;;;;12.38;1.92;;;;;;;;;;4929005;29;20094;-67
2022/03/18 14:32:53;;;;;;;;;;;;;;;;;;4922847;29;20131;-67
2022/03/18 14:35:37;;;;;;;9.57;1.85;;;;;;;;;;4857600;29;19928;-66
2022/03/18 14:38:04;;;;;;;6.13;1.58;;;;;;;;;;4844615;29;20579;-67
2022/03/18 14:40:31;;;;;;;7.53;1.60;;;;;;;;;;4835978;29;20057;-67
2022/03/18 14:42:58;;;;;;;5.78;1.48;;;;;;;;;;4844270;29;20180;-66
2022/03/18 14:45:25;;;;;;;;;;;;;;;;;;4839441;29;20128;-66
2022/03/18 14:47:51;;;;;;;6.47;1.85;;;;;;;;;;4837910;29;20034;-66
2022/03/18 14:50:18;;;;;;;11.90;2.28;;;;;;;;;;4843636;29;20481;-67
2022/03/18 14:52:45;;;;;;;4.80;1.35;;;;;;;;;;4843258;29;20121;-66
2022/03/18 14:58:05;;;;;;;7.78;1.85;;;;;;;;;;4856123;29;20390;-67
2022/03/18 15:00:32;;;;;;;10.70;1.88;;;;;;;;;;4854885;29;20060;-66
2022/03/18 15:03:05;;;;;;;8.25;2.13;;;;;;;;;;4854122;29;20064;-66
2022/03/18 15:05:33;;;;;;;9.35;2.13;;;;;;;;;;4841996;29;20058;-66
2022/03/18 15:07:59;;;;;;;4.85;1.65;;;;;;;;;;4842159;29;20133;-67
2022/03/18 15:10:27;;;;;;;3.58;0.98;;;;;;;;;;4855358;29;20466;-67
2022/03/18 15:12:54;;;;;;;4.38;1.50;;;;;;;;;;4883774;29;20047;-67
2022/03/18 15:15:21;;;;;;;;;;;;;;;;;;4918303;29;20098;-66
2022/03/18 15:17:48;;;;;;;7.07;1.85;;;;;;;;;;4921204;29;19980;-66